createdAt,value
2019-04-21T00:00:35.488Z,46.03
2019-04-21T00:01:39.871Z,46.13
2019-04-21T00:02:37.714Z,46.13
2019-04-21T00:03:42.394Z,45.94
2019-04-21T00:04:46.849Z,45.94
2019-04-21T00:05:54.590Z,46.03
2019-04-21T00:06:58.262Z,45.56
2019-04-21T00:07:51.082Z,45.37
2019-04-21T00:08:56.512Z,45.75
2019-04-21T00:10:59.365Z,45.65
2019-04-21T00:11:57.270Z,44.89
2019-04-21T00:12:52.056Z,44.89
2019-04-21T00:13:46.742Z,44.79
2019-04-21T00:14:46.070Z,43.36
2019-04-21T00:15:42.070Z,42.97
2019-04-21T00:16:44.126Z,43.46
2019-04-21T00:17:35.049Z,43.65
2019-04-21T00:18:41.783Z,44.15
2019-04-21T00:19:37.081Z,47.56
2019-04-21T00:20:41.291Z,48.52
2019-04-21T00:21:40.466Z,48.42
2019-04-21T00:22:44.439Z,48.71
2019-04-21T00:23:54.095Z,48.52
2019-04-21T00:25:46.135Z,48.13
2019-04-21T00:26:55.667Z,48.21
2019-04-21T00:27:50.108Z,48.30
2019-04-21T00:28:59.515Z,48.78
2019-04-21T00:29:52.172Z,48.39
2019-04-21T00:30:50.503Z,48.02
2019-04-21T00:31:45.550Z,47.92
2019-04-21T00:32:46.544Z,48.39
2019-04-21T00:33:37.773Z,49.71
2019-04-21T00:34:34.283Z,50.09
2019-04-21T00:35:40.365Z,49.99
2019-04-21T00:36:48.891Z,49.80
2019-04-21T00:37:53.359Z,51.68
2019-04-21T00:39:06.876Z,51.50
2019-04-21T00:40:00.980Z,51.59
2019-04-21T00:40:54.822Z,52.07
2019-04-21T00:41:53.741Z,52.26
2019-04-21T00:42:48.745Z,52.45
2019-04-21T00:43:49.064Z,53.31
2019-04-21T00:44:52.098Z,53.66
2019-04-21T00:45:44.641Z,53.56
2019-04-21T00:46:47.244Z,54.04
2019-04-21T00:47:52.865Z,55.19
2019-04-21T00:48:53.439Z,55.76
2019-04-21T00:49:58.002Z,56.62
2019-04-21T00:51:11.782Z,57.28
2019-04-21T00:52:09.359Z,58.21
2019-04-21T00:53:02.246Z,58.40
2019-04-21T00:54:07.044Z,57.82
2019-04-21T00:55:10.062Z,57.28
2019-04-21T00:55:57.347Z,57.00
2019-04-21T00:56:59.163Z,57.00
2019-04-21T00:58:00.071Z,57.09
2019-04-21T00:58:59.529Z,57.09
2019-04-21T00:59:50.007Z,56.81
2019-04-21T01:00:58.128Z,56.62
2019-04-21T01:01:53.868Z,56.52
2019-04-21T01:02:56.119Z,56.04
2019-04-21T01:03:58.285Z,55.85
2019-04-21T01:04:59.804Z,55.95
2019-04-21T01:06:14.377Z,55.95
2019-04-21T01:06:56.055Z,55.66
2019-04-21T01:07:54.659Z,55.47
2019-04-21T01:08:55.267Z,55.19
2019-04-21T01:09:50.072Z,55.09
2019-04-21T01:10:49.165Z,55.00
2019-04-21T01:11:57.583Z,55.19
2019-04-21T01:12:56.114Z,55.47
2019-04-21T01:13:59.636Z,55.57
2019-04-21T01:14:59.522Z,55.38
2019-04-21T01:15:53.336Z,55.47
2019-04-21T01:16:57.960Z,55.47
2019-04-21T01:17:54.601Z,55.47
2019-04-21T01:18:51.920Z,55.66
2019-04-21T01:19:46.861Z,55.95
2019-04-21T01:20:32.975Z,56.43
2019-04-21T01:21:32.967Z,56.81
2019-04-21T01:22:32.940Z,56.71
2019-04-21T01:23:33.688Z,57.09
2019-04-21T01:24:37.627Z,57.57
2019-04-21T01:25:38.186Z,57.57
2019-04-21T01:26:43.818Z,57.67
2019-04-21T01:27:55.901Z,57.76
2019-04-21T01:28:52.460Z,57.67
2019-04-21T01:29:54.006Z,57.19
2019-04-21T01:30:53.571Z,57.00
2019-04-21T01:31:48.274Z,56.90
2019-04-21T01:32:53.267Z,57.48
2019-04-21T01:33:59.227Z,57.86
2019-04-21T01:34:51.101Z,58.24
2019-04-21T01:35:53.703Z,58.62
2019-04-21T01:36:49.824Z,58.81
2019-04-21T01:38:10.965Z,59.00
2019-04-21T01:38:57.769Z,59.67
2019-04-21T01:39:54.529Z,59.95
2019-04-21T01:40:57.124Z,60.05
2019-04-21T01:41:51.145Z,59.95
2019-04-21T01:42:51.123Z,59.86
2019-04-21T01:43:51.554Z,59.92
2019-04-21T01:44:56.413Z,61.07
2019-04-21T01:45:48.705Z,61.73
2019-04-21T01:46:49.293Z,61.73
2019-04-21T01:47:51.091Z,61.35
2019-04-21T01:48:49.346Z,61.45
2019-04-21T01:49:43.061Z,61.93
2019-04-21T01:50:51.045Z,61.64
2019-04-21T01:52:05.578Z,61.45
2019-04-21T01:52:56.016Z,61.07
2019-04-21T01:53:57.956Z,60.59
2019-04-21T01:54:55.208Z,60.69
2019-04-21T01:55:54.555Z,60.49
2019-04-21T01:56:53.985Z,60.78
2019-04-21T01:57:49.338Z,61.35
2019-04-21T01:58:42.951Z,61.64
2019-04-21T01:59:47.145Z,62.02
2019-04-21T02:00:48.483Z,62.65
2019-04-21T02:01:54.124Z,63.42
2019-04-21T02:02:59.571Z,63.23
2019-04-21T02:05:00.737Z,62.18
2019-04-21T02:05:58.593Z,62.27
2019-04-21T02:06:45.594Z,62.27
2019-04-21T02:07:50.554Z,62.56
2019-04-21T02:08:50.982Z,62.65
2019-04-21T02:09:50.730Z,62.46
2019-04-21T02:10:54.928Z,62.37
2019-04-21T02:11:56.368Z,62.56
2019-04-21T02:12:54.979Z,62.56
2019-04-21T02:14:00.406Z,62.27
2019-04-21T02:15:00.425Z,62.18
2019-04-21T02:15:56.405Z,62.08
2019-04-21T02:16:55.678Z,62.18
2019-04-21T02:17:53.706Z,62.08
2019-04-21T02:18:53.064Z,62.27
2019-04-21T02:19:51.736Z,62.75
2019-04-21T02:20:40.999Z,63.04
2019-04-21T02:21:50.415Z,62.94
2019-04-21T02:23:19.158Z,62.91
2019-04-21T02:23:58.656Z,63.32
2019-04-21T02:24:58.365Z,63.32
2019-04-21T02:26:48.517Z,63.32
2019-04-21T02:27:57.498Z,63.13
2019-04-21T02:28:55.855Z,63.42
2019-04-21T02:29:55.850Z,63.80
2019-04-21T02:31:14.187Z,63.99
2019-04-21T02:32:20.227Z,63.99
2019-04-21T02:36:15.477Z,64.47
2019-04-21T02:38:13.914Z,64.56
2019-04-21T02:39:08.164Z,64.62
2019-04-21T02:40:04.927Z,64.72
2019-04-21T02:40:57.888Z,64.72
2019-04-21T02:42:05.327Z,64.72
2019-04-21T02:43:05.370Z,64.90
2019-04-21T02:44:10.154Z,65.67
2019-04-21T02:45:00.333Z,65.77
2019-04-21T02:46:04.259Z,65.77
2019-04-21T02:47:12.182Z,65.95
2019-04-21T02:48:06.915Z,65.86
2019-04-21T02:49:07.845Z,65.10
2019-04-21T02:50:09.555Z,64.43
2019-04-21T02:50:57.682Z,64.62
2019-04-21T02:52:13.782Z,64.81
2019-04-21T02:53:07.099Z,65.00
2019-04-21T02:54:31.826Z,65.10
2019-04-21T02:55:02.798Z,65.58
2019-04-21T02:56:00.211Z,65.48
2019-04-21T02:59:17.142Z,66.02
2019-04-21T03:00:06.863Z,66.11
2019-04-21T03:01:08.072Z,66.20
2019-04-21T03:02:03.628Z,66.20
2019-04-21T03:04:00.056Z,66.39
2019-04-21T03:05:02.413Z,66.11
2019-04-21T03:07:09.667Z,66.33
2019-04-21T03:09:09.208Z,66.11
2019-04-21T03:10:00.105Z,66.30
2019-04-21T03:11:09.390Z,66.78
2019-04-21T03:13:08.916Z,67.44
2019-04-21T03:14:11.101Z,67.63
2019-04-21T03:15:08.061Z,67.63
2019-04-21T03:16:09.227Z,67.54
2019-04-21T03:17:05.645Z,67.63
2019-04-21T03:18:06.475Z,67.35
2019-04-21T03:19:20.366Z,66.97
2019-04-21T03:19:59.929Z,66.68
2019-04-21T03:21:16.341Z,66.30
2019-04-21T03:22:05.227Z,66.30
2019-04-21T03:23:09.470Z,66.02
2019-04-21T03:23:57.375Z,66.11
2019-04-21T03:25:28.290Z,66.49
2019-04-21T03:26:14.348Z,66.30
2019-04-21T03:29:03.619Z,67.07
2019-04-21T03:30:14.276Z,66.97
2019-04-21T03:31:24.997Z,66.87
2019-04-21T03:32:31.806Z,66.97
2019-04-21T03:33:47.004Z,67.16
2019-04-21T03:37:11.357Z,67.54
2019-04-21T03:38:13.778Z,67.63
2019-04-21T03:38:55.596Z,67.92
2019-04-21T03:39:59.336Z,67.82
2019-04-21T03:40:57.719Z,67.63
2019-04-21T03:43:59.158Z,67.07
2019-04-21T03:45:06.849Z,67.07
2019-04-21T03:46:00.913Z,67.16
2019-04-21T03:48:05.309Z,67.35
2019-04-21T03:49:12.234Z,67.16
2019-04-21T03:50:08.019Z,67.07
2019-04-21T03:50:56.419Z,67.16
2019-04-21T03:52:03.813Z,67.16
2019-04-21T03:53:06.980Z,67.07
2019-04-21T03:54:00.372Z,67.63
2019-04-21T03:55:18.265Z,68.01
2019-04-21T03:57:17.791Z,68.11
2019-04-21T04:00:17.659Z,69.02
2019-04-21T04:03:27.476Z,69.31
2019-04-21T04:05:08.940Z,69.60
2019-04-21T04:07:25.082Z,70.17
2019-04-21T04:08:24.980Z,70.07
2019-04-21T04:09:19.384Z,69.88
2019-04-21T04:10:11.766Z,69.98
2019-04-21T04:11:23.435Z,69.98
2019-04-21T04:11:56.051Z,69.98
2019-04-21T04:12:57.083Z,69.92
2019-04-21T04:14:09.051Z,69.63
2019-04-21T04:18:07.787Z,69.31
2019-04-21T04:19:01.563Z,69.79
2019-04-21T04:20:24.075Z,69.88
2019-04-21T04:21:03.480Z,70.26
2019-04-21T04:22:09.364Z,70.54
2019-04-21T04:23:03.801Z,70.36
2019-04-21T04:24:09.144Z,70.17
2019-04-21T04:25:57.754Z,71.31
2019-04-21T04:28:09.870Z,71.46
2019-04-21T04:29:04.177Z,71.56
2019-04-21T04:30:10.672Z,71.78
2019-04-21T04:31:09.283Z,71.88
2019-04-21T04:31:58.792Z,71.59
2019-04-21T04:32:57.242Z,71.59
2019-04-21T04:34:10.440Z,71.88
2019-04-21T04:35:04.006Z,71.88
2019-04-21T04:36:15.637Z,71.78
2019-04-21T04:37:05.406Z,71.59
2019-04-21T04:37:59.191Z,71.69
2019-04-21T04:39:23.047Z,71.88
2019-04-21T04:40:10.466Z,72.07
2019-04-21T04:41:09.739Z,71.97
2019-04-21T04:43:09.034Z,71.88
2019-04-21T04:44:06.991Z,71.88
2019-04-21T04:46:00.517Z,71.78
2019-04-21T04:47:04.646Z,71.78
2019-04-21T04:48:01.958Z,71.78
2019-04-21T04:49:01.718Z,71.97
2019-04-21T04:50:10.271Z,72.16
2019-04-21T04:51:02.206Z,72.26
2019-04-21T04:52:18.691Z,72.16
2019-04-21T04:52:57.022Z,72.35
2019-04-21T04:54:28.645Z,72.64
2019-04-21T04:55:00.681Z,72.64
2019-04-21T04:57:08.217Z,72.45
2019-04-21T04:59:23.389Z,72.16
2019-04-21T05:01:08.057Z,72.55
2019-04-21T05:02:56.378Z,72.35
2019-04-21T05:04:20.567Z,72.74
2019-04-21T05:05:09.185Z,72.35
2019-04-21T05:06:15.827Z,72.45
2019-04-21T05:06:58.094Z,72.74
2019-04-21T05:08:19.814Z,72.74
2019-04-21T05:11:08.028Z,72.26
2019-04-21T05:11:55.742Z,72.74
2019-04-21T05:13:04.315Z,72.83
2019-04-21T05:14:59.911Z,72.83
2019-04-21T05:16:01.582Z,72.83
2019-04-21T05:17:57.609Z,72.74
2019-04-21T05:21:03.597Z,72.11
2019-04-21T05:22:05.807Z,71.91
2019-04-21T05:22:53.140Z,72.11
2019-04-21T05:23:46.986Z,71.82
2019-04-21T05:24:44.073Z,71.25
2019-04-21T05:25:48.402Z,71.06
2019-04-21T05:26:50.771Z,71.25
2019-04-21T05:27:45.153Z,71.82
2019-04-21T05:28:42.034Z,72.30
2019-04-21T05:29:56.799Z,72.30
2019-04-21T05:30:58.539Z,72.30
2019-04-21T05:32:18.483Z,72.20
2019-04-21T05:32:58.411Z,72.20
2019-04-21T05:33:53.234Z,72.20
2019-04-21T05:34:50.823Z,71.53
2019-04-21T05:35:49.075Z,71.63
2019-04-21T05:36:52.430Z,71.44
2019-04-21T05:37:50.405Z,70.77
2019-04-21T05:38:50.257Z,69.73
2019-04-21T05:39:42.013Z,69.54
2019-04-21T05:40:38.991Z,69.35
2019-04-21T05:41:38.607Z,69.15
2019-04-21T05:42:48.604Z,69.54
2019-04-21T05:43:54.465Z,69.85
2019-04-21T05:44:58.807Z,68.71
2019-04-21T05:45:53.539Z,68.52
2019-04-21T05:46:59.370Z,69.29
2019-04-21T05:47:55.837Z,70.14
2019-04-21T05:48:52.601Z,70.14
2019-04-21T05:49:49.921Z,69.76
2019-04-21T05:50:49.510Z,69.29
2019-04-21T05:51:44.310Z,69.10
2019-04-21T05:52:46.775Z,69.10
2019-04-21T05:53:56.131Z,69.29
2019-04-21T05:54:57.296Z,69.48
2019-04-21T05:55:58.397Z,69.48
2019-04-21T05:56:48.755Z,69.57
2019-04-21T05:57:47.827Z,69.95
2019-04-21T05:58:49.723Z,69.95
2019-04-21T05:59:49.215Z,70.43
2019-04-21T06:02:01.414Z,71.61
2019-04-21T06:02:55.566Z,71.70
2019-04-21T06:06:56.896Z,73.13
2019-04-21T06:07:48.973Z,72.85
2019-04-21T06:08:48.092Z,72.37
2019-04-21T06:09:56.418Z,72.46
2019-04-21T06:10:52.460Z,72.50
2019-04-21T06:11:51.230Z,72.60
2019-04-21T06:12:57.905Z,72.60
2019-04-21T06:13:55.068Z,72.12
2019-04-21T06:14:54.551Z,71.26
2019-04-21T06:15:57.972Z,71.36
2019-04-21T06:16:58.679Z,70.59
2019-04-21T06:17:54.737Z,69.83
2019-04-21T06:18:53.086Z,69.35
2019-04-21T06:20:55.095Z,68.69
2019-04-21T06:21:44.892Z,68.50
2019-04-21T06:22:53.319Z,68.34
2019-04-21T06:23:49.725Z,68.15
2019-04-21T06:25:16.271Z,67.58
2019-04-21T06:26:25.378Z,66.78
2019-04-21T06:27:05.388Z,65.92
2019-04-21T06:27:51.109Z,65.07
2019-04-21T06:28:51.851Z,65.16
2019-04-21T06:29:52.731Z,65.26
2019-04-21T06:31:01.535Z,65.07
2019-04-21T06:32:16.330Z,65.73
2019-04-21T06:32:50.582Z,65.83
2019-04-21T06:34:04.718Z,66.11
2019-04-21T06:35:07.319Z,66.78
2019-04-21T06:36:11.457Z,66.82
2019-04-21T06:37:50.831Z,67.20
2019-04-21T06:39:01.976Z,67.10
2019-04-21T06:40:01.935Z,67.20
2019-04-21T06:40:58.748Z,66.82
2019-04-21T06:41:49.008Z,66.63
2019-04-21T06:43:04.394Z,66.63
2019-04-21T06:43:56.597Z,68.05
2019-04-21T06:44:57.507Z,69.10
2019-04-21T06:46:11.053Z,69.20
2019-04-21T06:47:06.346Z,69.90
2019-04-21T06:47:51.334Z,69.14
2019-04-21T06:48:55.519Z,68.66
2019-04-21T06:49:52.411Z,68.57
2019-04-21T06:50:52.606Z,68.47
2019-04-21T06:51:46.893Z,68.38
2019-04-21T06:53:59.715Z,68.95
2019-04-21T06:54:57.043Z,68.95
2019-04-21T06:55:57.545Z,68.28
2019-04-21T06:57:04.917Z,68.18
2019-04-21T06:57:56.101Z,67.80
2019-04-21T06:58:51.776Z,66.60
2019-04-21T06:59:43.399Z,64.97
2019-04-21T07:00:47.749Z,64.88
2019-04-21T07:01:55.094Z,65.45
2019-04-21T07:02:52.830Z,64.97
2019-04-21T07:04:01.667Z,62.30
2019-04-21T07:05:57.616Z,62.62
2019-04-21T07:08:05.202Z,65.01
2019-04-21T07:09:52.742Z,66.25
2019-04-21T07:10:51.732Z,64.91
2019-04-21T07:11:52.892Z,66.63
2019-04-21T07:12:45.314Z,67.49
2019-04-21T07:13:49.052Z,67.40
2019-04-21T07:14:49.776Z,67.58
2019-04-21T07:15:53.100Z,67.52
2019-04-21T07:16:52.964Z,67.14
2019-04-21T07:17:53.600Z,67.14
2019-04-21T07:20:07.198Z,67.33
2019-04-21T07:20:49.157Z,67.71
2019-04-21T07:21:54.208Z,68.00
2019-04-21T07:22:51.203Z,67.52
2019-04-21T07:23:54.361Z,67.14
2019-04-21T07:24:49.286Z,67.52
2019-04-21T07:25:51.965Z,68.10
2019-04-21T07:26:51.556Z,67.91
2019-04-21T07:28:56.900Z,68.00
2019-04-21T07:29:56.545Z,68.19
2019-04-21T07:30:56.621Z,67.62
2019-04-21T07:31:55.643Z,67.75
2019-04-21T07:32:56.299Z,66.13
2019-04-21T07:34:52.147Z,63.93
2019-04-21T07:35:51.794Z,61.63
2019-04-21T07:37:49.368Z,61.47
2019-04-21T07:38:45.612Z,60.80
2019-04-21T07:39:46.913Z,59.84
2019-04-21T07:40:42.965Z,59.56
2019-04-21T07:41:46.944Z,61.09
2019-04-21T07:42:42.931Z,60.23
2019-04-21T07:43:44.111Z,61.28
2019-04-21T07:44:44.750Z,60.52
2019-04-21T07:45:40.179Z,59.88
2019-04-21T07:46:42.709Z,56.62
2019-04-21T07:47:48.114Z,55.57
2019-04-21T07:48:50.113Z,56.24
2019-04-21T07:49:53.521Z,56.34
2019-04-21T07:50:47.433Z,57.01
2019-04-21T07:51:50.651Z,57.29
2019-04-21T07:52:55.382Z,53.69
2019-04-21T07:53:55.672Z,53.69
2019-04-21T07:55:03.282Z,53.40
2019-04-21T07:56:35.039Z,51.77
2019-04-21T07:57:47.894Z,51.29
2019-04-21T07:58:55.813Z,51.01
2019-04-21T07:59:57.837Z,51.01
2019-04-21T08:00:52.643Z,51.01
2019-04-21T08:01:53.192Z,51.10
2019-04-21T08:02:49.745Z,51.03
2019-04-21T08:03:47.873Z,49.66
2019-04-21T08:05:09.986Z,49.00
2019-04-21T08:05:45.763Z,48.23
2019-04-21T08:06:47.688Z,48.07
2019-04-21T08:07:52.043Z,49.02
2019-04-21T08:08:50.985Z,48.25
2019-04-21T08:09:47.307Z,48.16
2019-04-21T08:10:47.073Z,50.84
2019-04-21T08:11:41.655Z,49.91
2019-04-21T08:12:42.032Z,49.05
2019-04-21T08:13:44.929Z,47.06
2019-04-21T08:14:50.737Z,47.44
2019-04-21T08:15:44.160Z,46.67
2019-04-21T08:16:56.034Z,47.56
2019-04-21T08:17:47.132Z,46.31
2019-04-21T08:18:45.520Z,47.01
2019-04-21T08:19:43.055Z,46.05
2019-04-21T08:20:46.220Z,45.95
2019-04-21T08:21:54.609Z,45.47
2019-04-21T08:23:43.604Z,46.65
2019-04-21T08:24:51.788Z,45.68
2019-04-21T08:25:53.264Z,45.01
2019-04-21T08:26:53.719Z,46.07
2019-04-21T08:27:56.995Z,42.73
2019-04-21T08:28:47.473Z,41.58
2019-04-21T08:29:45.964Z,42.25
2019-04-21T08:30:43.224Z,42.35
2019-04-21T08:34:55.170Z,41.12
2019-04-21T08:36:46.208Z,41.41
2019-04-21T08:37:43.265Z,41.72
2019-04-21T08:38:49.614Z,41.24
2019-04-21T08:40:00.637Z,39.81
2019-04-21T08:40:47.004Z,39.14
2019-04-21T08:41:46.438Z,39.93
2019-04-21T08:42:44.771Z,40.22
2019-04-21T08:43:48.023Z,39.93
2019-04-21T08:44:47.929Z,40.34
2019-04-21T08:45:48.207Z,39.95
2019-04-21T08:46:49.136Z,38.02
2019-04-21T08:47:47.707Z,38.81
2019-04-21T08:48:50.827Z,39.89
2019-04-21T08:50:44.274Z,36.15
2019-04-21T08:51:51.697Z,34.70
2019-04-21T08:52:49.052Z,33.26
2019-04-21T08:53:57.462Z,32.70
2019-04-21T08:54:48.139Z,32.04
2019-04-21T08:55:48.906Z,30.98
2019-04-21T08:56:49.088Z,32.64
2019-04-21T08:57:53.912Z,31.28
2019-04-21T08:58:52.271Z,31.38
2019-04-21T08:59:45.951Z,33.00
2019-04-21T09:00:47.356Z,33.58
2019-04-21T09:01:48.897Z,33.20
2019-04-21T09:02:47.403Z,32.79
2019-04-21T09:03:43.011Z,32.87
2019-04-21T09:04:48.010Z,33.86
2019-04-21T09:05:45.085Z,33.18
2019-04-21T09:07:04.627Z,34.63
2019-04-21T09:07:49.549Z,32.52
2019-04-21T09:08:45.760Z,31.91
2019-04-21T09:09:47.418Z,32.51
2019-04-21T09:10:47.225Z,33.76
2019-04-21T09:11:50.910Z,34.53
2019-04-21T09:12:43.286Z,35.13
2019-04-21T09:13:41.132Z,35.13
2019-04-21T09:14:46.057Z,33.86
2019-04-21T09:15:41.621Z,33.09
2019-04-21T09:16:42.679Z,33.18
2019-04-21T09:17:37.779Z,36.19
2019-04-21T09:18:41.548Z,33.29
2019-04-21T09:19:51.006Z,32.24
2019-04-21T09:20:52.158Z,33.04
2019-04-21T09:21:46.961Z,33.15
2019-04-21T09:22:42.961Z,32.57
2019-04-21T09:23:45.302Z,34.13
2019-04-21T09:24:46.938Z,33.28
2019-04-21T09:25:47.280Z,30.10
2019-04-21T09:26:40.660Z,29.26
2019-04-21T09:27:42.101Z,30.63
2019-04-21T09:28:39.416Z,27.94
2019-04-21T09:29:35.428Z,27.37
2019-04-21T09:30:26.381Z,25.93
2019-04-21T09:31:31.853Z,24.88
2019-04-21T09:32:30.159Z,25.18
2019-04-21T09:33:34.156Z,23.73
2019-04-21T09:34:35.880Z,25.36
2019-04-21T09:35:27.013Z,25.57
2019-04-21T09:36:35.280Z,23.52
2019-04-21T09:37:37.950Z,22.86
2019-04-21T09:38:33.848Z,22.27
2019-04-21T09:39:29.509Z,21.60
2019-04-21T09:40:33.974Z,23.25
2019-04-21T09:41:27.712Z,23.17
2019-04-21T09:42:34.572Z,23.77
2019-04-21T09:43:35.751Z,23.47
2019-04-21T09:44:31.507Z,23.39
2019-04-21T09:45:26.433Z,23.78
2019-04-21T09:46:25.867Z,22.71
2019-04-21T09:47:35.037Z,23.08
2019-04-21T09:48:26.662Z,22.69
2019-04-21T09:49:29.476Z,22.39
2019-04-21T09:50:26.538Z,23.25
2019-04-21T09:51:25.981Z,22.93
2019-04-21T09:52:36.129Z,25.16
2019-04-21T09:53:32.966Z,24.67
2019-04-21T09:54:31.150Z,25.25
2019-04-21T09:55:31.986Z,25.05
2019-04-21T09:56:37.408Z,25.56
2019-04-21T09:57:36.685Z,25.56
2019-04-21T09:58:33.104Z,26.25
2019-04-21T09:59:33.069Z,24.71
2019-04-21T10:00:29.329Z,23.54
2019-04-21T10:01:37.149Z,23.62
2019-04-21T10:02:35.225Z,23.32
2019-04-21T10:03:26.358Z,25.18
2019-04-21T10:04:26.639Z,24.98
2019-04-21T10:05:25.836Z,25.29
2019-04-21T10:06:26.086Z,24.80
2019-04-21T10:07:31.848Z,23.90
2019-04-21T10:08:27.181Z,24.38
2019-04-21T10:09:26.403Z,24.77
2019-04-21T10:10:25.821Z,26.62
2019-04-21T10:11:26.886Z,26.92
2019-04-21T10:12:25.824Z,25.57
2019-04-21T10:13:25.817Z,26.06
2019-04-21T10:14:26.425Z,26.64
2019-04-21T10:15:27.838Z,26.15
2019-04-21T10:16:26.081Z,25.37
2019-04-21T10:17:25.815Z,25.27
2019-04-21T10:18:25.812Z,26.83
2019-04-21T10:19:25.806Z,26.84
2019-04-21T10:20:26.457Z,26.26
2019-04-21T10:21:27.586Z,26.46
2019-04-21T10:22:26.683Z,26.18
2019-04-21T10:23:25.813Z,26.28
2019-04-21T10:24:26.363Z,25.20
2019-04-21T10:25:25.832Z,26.18
2019-04-21T10:26:26.425Z,24.04
2019-04-21T10:27:27.254Z,24.73
2019-04-21T10:28:26.882Z,23.86
2019-04-21T10:29:28.839Z,23.00
2019-04-21T10:30:26.675Z,22.22
2019-04-21T10:31:26.900Z,23.78
2019-04-21T10:32:25.800Z,22.88
2019-04-21T10:33:26.276Z,22.50
2019-04-21T10:34:25.804Z,22.61
2019-04-21T10:35:26.316Z,23.11
2019-04-21T10:36:26.852Z,24.18
2019-04-21T10:37:40.058Z,24.38
2019-04-21T10:38:34.577Z,23.40
2019-04-21T10:39:25.825Z,22.90
2019-04-21T10:40:25.803Z,23.19
2019-04-21T10:41:25.795Z,22.41
2019-04-21T10:42:26.887Z,21.51
2019-04-21T10:43:27.361Z,22.65
2019-04-21T10:44:27.227Z,24.60
2019-04-21T10:45:25.803Z,24.69
2019-04-21T10:46:26.680Z,26.83
2019-04-21T10:47:26.935Z,26.25
2019-04-21T10:48:25.792Z,26.54
2019-04-21T10:49:26.636Z,23.04
2019-04-21T10:50:26.787Z,22.64
2019-04-21T10:51:25.782Z,22.35
2019-04-21T10:52:28.952Z,22.26
2019-04-21T10:53:26.761Z,21.98
2019-04-21T10:54:27.227Z,21.88
2019-04-21T10:55:40.268Z,23.43
2019-04-21T10:56:31.335Z,25.37
2019-04-21T10:57:26.407Z,24.79
2019-04-21T10:58:26.572Z,24.30
2019-04-21T10:59:26.859Z,24.19
2019-04-21T11:00:25.981Z,23.42
2019-04-21T11:01:27.193Z,23.21
2019-04-21T11:02:26.400Z,23.89
2019-04-21T11:03:26.878Z,24.07
2019-04-21T11:04:32.388Z,24.17
2019-04-21T11:05:26.983Z,23.77
2019-04-21T11:06:26.502Z,24.84
2019-04-21T11:07:31.158Z,24.54
2019-04-21T11:08:33.737Z,24.44
2019-04-21T11:09:26.353Z,24.15
2019-04-21T11:10:25.837Z,25.62
2019-04-21T11:11:25.974Z,25.64
2019-04-21T11:12:25.924Z,24.48
2019-04-21T11:13:26.408Z,25.45
2019-04-21T11:14:27.118Z,25.92
2019-04-21T11:15:25.753Z,24.66
2019-04-21T11:16:26.893Z,25.54
2019-04-21T11:17:25.944Z,26.33
2019-04-21T11:18:26.020Z,26.44
2019-04-21T11:19:25.725Z,24.91
2019-04-21T11:20:26.838Z,24.44
2019-04-21T11:21:26.985Z,23.47
2019-04-21T11:22:26.150Z,22.20
2019-04-21T11:23:26.899Z,22.69
2019-04-21T11:24:27.020Z,22.69
2019-04-21T11:25:26.219Z,21.82
2019-04-21T11:26:25.708Z,22.89
2019-04-21T11:27:26.836Z,22.12
2019-04-21T11:28:27.098Z,22.22
2019-04-21T11:29:26.347Z,21.92
2019-04-21T11:30:25.725Z,22.21
2019-04-21T11:31:27.076Z,23.27
2019-04-21T11:32:25.722Z,23.65
2019-04-21T11:33:27.026Z,24.33
2019-04-21T11:34:25.698Z,23.84
2019-04-21T11:35:25.699Z,23.16
2019-04-21T11:36:26.995Z,23.55
2019-04-21T11:37:26.111Z,24.33
2019-04-21T11:38:30.011Z,24.60
2019-04-21T11:39:39.155Z,22.54
2019-04-21T11:40:25.707Z,24.49
2019-04-21T11:41:25.741Z,24.19
2019-04-21T11:42:25.809Z,24.21
2019-04-21T11:43:25.695Z,23.63
2019-04-21T11:44:26.920Z,23.35
2019-04-21T11:45:26.316Z,24.43
2019-04-21T11:46:26.810Z,24.82
2019-04-21T11:47:25.695Z,25.09
2019-04-21T11:48:26.150Z,26.93
2019-04-21T11:49:28.559Z,26.93
2019-04-21T11:50:25.663Z,24.08
2019-04-21T11:51:26.902Z,24.66
2019-04-21T11:52:26.852Z,26.40
2019-04-21T11:53:25.675Z,26.00
2019-04-21T11:54:26.780Z,25.81
2019-04-21T11:55:29.491Z,25.90
2019-04-21T11:56:27.114Z,27.75
2019-04-21T11:57:28.736Z,27.17
2019-04-21T11:58:26.188Z,27.07
2019-04-21T11:59:25.908Z,26.67
2019-04-21T12:00:25.634Z,27.35
2019-04-21T12:01:25.774Z,28.32
2019-04-21T12:02:25.782Z,27.92
2019-04-21T12:03:25.645Z,28.20
2019-04-21T12:04:25.621Z,29.08
2019-04-21T12:05:25.616Z,29.08
2019-04-21T12:06:32.203Z,29.66
2019-04-21T12:07:25.606Z,29.28
2019-04-21T12:08:33.074Z,29.19
2019-04-21T12:09:25.614Z,27.94
2019-04-21T12:10:25.595Z,26.21
2019-04-21T12:11:25.598Z,25.54
2019-04-21T12:12:25.595Z,25.67
2019-04-21T12:13:25.608Z,25.10
2019-04-21T12:14:25.959Z,23.46
2019-04-21T12:15:26.973Z,22.79
2019-04-21T12:16:25.623Z,23.21
2019-04-21T12:17:25.929Z,22.14
2019-04-21T12:18:28.140Z,21.08
2019-04-21T12:19:26.987Z,20.41
2019-04-21T12:20:26.431Z,20.92
2019-04-21T12:21:28.338Z,18.77
2019-04-21T12:22:30.269Z,18.79
2019-04-21T12:23:26.740Z,17.92
2019-04-21T12:24:27.034Z,18.32
2019-04-21T12:25:25.653Z,17.84
2019-04-21T12:26:26.398Z,19.22
2019-04-21T12:27:25.757Z,17.05
2019-04-21T12:28:25.894Z,16.35
2019-04-21T12:29:26.882Z,17.32
2019-04-21T12:30:25.607Z,17.59
2019-04-21T12:31:25.633Z,18.25
2019-04-21T12:32:26.322Z,19.60
2019-04-21T12:33:25.621Z,20.17
2019-04-21T12:34:25.948Z,20.83
2019-04-21T12:35:26.136Z,22.78
2019-04-21T12:36:25.639Z,24.72
2019-04-21T12:37:26.869Z,25.49
2019-04-21T12:38:36.406Z,23.65
2019-04-21T12:39:26.996Z,23.65
2019-04-21T12:40:26.413Z,23.35
2019-04-21T12:41:26.692Z,24.23
2019-04-21T12:42:26.882Z,24.15
2019-04-21T12:43:26.460Z,25.51
2019-04-21T12:44:25.615Z,24.44
2019-04-21T12:45:26.111Z,22.75
2019-04-21T12:46:25.863Z,24.40
2019-04-21T12:47:25.931Z,24.22
2019-04-21T12:48:26.234Z,23.05
2019-04-21T12:49:25.738Z,23.35
2019-04-21T12:50:25.900Z,24.43
2019-04-21T12:51:25.963Z,24.04
2019-04-21T12:52:25.624Z,21.69
2019-04-21T12:53:25.657Z,23.62
2019-04-21T12:54:25.953Z,23.54
2019-04-21T12:55:30.508Z,22.66
2019-04-21T12:56:25.774Z,22.96
2019-04-21T12:57:25.629Z,22.76
2019-04-21T12:58:25.647Z,24.32
2019-04-21T12:59:28.127Z,24.30
2019-04-21T13:00:26.928Z,22.25
2019-04-21T13:01:25.623Z,24.58
2019-04-21T13:02:25.630Z,23.50
2019-04-21T13:03:27.426Z,24.77
2019-04-21T13:04:25.999Z,25.64
2019-04-21T13:05:25.621Z,25.35
2019-04-21T13:06:25.629Z,25.45
2019-04-21T13:07:25.820Z,23.20
2019-04-21T13:08:25.612Z,23.87
2019-04-21T13:09:27.473Z,23.09
2019-04-21T13:10:26.403Z,23.08
2019-04-21T13:11:25.637Z,24.34
2019-04-21T13:12:26.810Z,25.12
2019-04-21T13:13:26.167Z,24.82
2019-04-21T13:14:26.170Z,25.89
2019-04-21T13:15:25.622Z,25.60
2019-04-21T13:16:25.604Z,25.99
2019-04-21T13:17:25.657Z,25.89
2019-04-21T13:18:26.950Z,25.99
2019-04-21T13:19:25.593Z,26.57
2019-04-21T13:20:25.587Z,26.86
2019-04-21T13:21:25.593Z,25.70
2019-04-21T13:22:25.931Z,26.49
2019-04-21T13:23:27.018Z,26.60
2019-04-21T13:24:26.150Z,24.46
2019-04-21T13:25:25.660Z,24.96
2019-04-21T13:26:35.872Z,23.50
2019-04-21T13:27:26.890Z,23.79
2019-04-21T13:28:25.618Z,24.68
2019-04-21T13:29:26.009Z,25.36
2019-04-21T13:30:26.379Z,24.67
2019-04-21T13:31:26.604Z,23.49
2019-04-21T13:32:26.877Z,22.51
2019-04-21T13:33:27.049Z,24.45
2019-04-21T13:34:26.281Z,23.96
2019-04-21T13:35:26.729Z,24.26
2019-04-21T13:36:25.700Z,24.26
2019-04-21T13:37:25.735Z,22.72
2019-04-21T13:38:32.987Z,25.24
2019-04-21T13:39:53.667Z,24.28
2019-04-21T13:40:45.168Z,23.32
2019-04-21T13:41:40.794Z,23.14
2019-04-21T13:42:34.288Z,21.29
2019-04-21T13:43:25.549Z,21.09
2019-04-21T13:44:26.765Z,20.42
2019-04-21T13:45:25.963Z,20.51
2019-04-21T13:46:27.092Z,19.93
2019-04-21T13:47:25.540Z,21.09
2019-04-21T13:48:26.447Z,21.98
2019-04-21T13:49:25.536Z,20.92
2019-04-21T13:50:25.672Z,21.31
2019-04-21T13:51:26.797Z,21.41
2019-04-21T13:52:26.587Z,19.65
2019-04-21T13:53:26.775Z,20.04
2019-04-21T13:54:25.662Z,19.17
2019-04-21T13:55:25.751Z,19.35
2019-04-21T13:56:26.748Z,19.84
2019-04-21T13:57:26.301Z,18.27
2019-04-21T13:58:26.352Z,18.48
2019-04-21T13:59:26.400Z,18.98